Tazewell, Tennessee
Current Conditions -  °F | °C
As of 4:15 AM on Monday 24 Nov 2014 (Local Time) from K1A6 Reporting Station
Overcast Overcast  
Wind Chill: 61°   Ceiling: 2300
Heat Index: 61°   Visibility: 10mi
Dew Point: 55°   Wind: 12mph
Humidity: 79%   Direction: 210°SSW
Pressure: 29.58"   Gusts: 22mph
Location:  36.45°N, 83.57°W
Report Text: K1A6 240915Z AUTO 21010G19KT 10SM OVC023 16/13 A2958 RMK AO2 T01610125
Loading
Personal Weather Stations






























Interactive Weather Map New forecast layout! Learn more

10-Day Weather Forecast

Advertisements
Track Severe Weather on mobile